Time;durP1;ratioP1;P1;durP2;ratioP2;P2;SDS_P1;SDS_P2;PMS_P1;PMS_P2;Temp;Humidity;BMP_temperature;BMP_pressure;BME280_temperature;BME280_humidity;BME280_pressure;Samples;Min_cycle;Max_cycle;Signal;HPM_P1;HPM_P2
2022/02/26 00:02:04;;;;;;;10.17;2.00;;;1.90;99.90;;;;;;4999961;28;20210;-77
2022/02/26 00:04:29;;;;;;;8.83;2.03;;;1.90;99.90;;;;;;5017209;28;20188;-79
2022/02/26 00:06:55;;;;;;;9.47;1.90;;;2.00;99.90;;;;;;5015197;28;20184;-78
2022/02/26 00:09:20;;;;;;;9.70;2.27;;;1.90;99.90;;;;;;5016762;28;20271;-80
2022/02/26 00:11:46;;;;;;;8.27;1.60;;;1.90;99.90;;;;;;5017242;28;20207;-81
2022/02/26 00:14:11;;;;;;;9.73;1.80;;;1.90;99.90;;;;;;4999045;28;20651;-76
2022/02/26 00:16:37;;;;;;;4.50;1.73;;;1.90;99.90;;;;;;5001206;28;20184;-77
2022/02/26 00:19:03;;;;;;;7.10;1.60;;;1.90;99.90;;;;;;5002773;28;20184;-80
2022/02/26 00:21:29;;;;;;;7.73;2.43;;;1.80;99.90;;;;;;5012867;28;20234;-79
2022/02/26 00:23:55;;;;;;;7.67;1.80;;;1.90;99.90;;;;;;5016269;28;20199;-78
2022/02/26 00:26:22;;;;;;;9.77;2.20;;;1.90;99.90;;;;;;4998462;28;20553;-77
2022/02/26 00:28:48;;;;;;;8.13;2.00;;;1.80;99.90;;;;;;4998683;28;20196;-79
2022/02/26 00:31:15;;;;;;;9.90;2.17;;;1.90;99.90;;;;;;4997953;28;20203;-79
2022/02/26 00:33:41;;;;;;;6.80;2.13;;;1.90;99.90;;;;;;5000049;28;20176;-77
2022/02/26 00:36:07;;;;;;;7.93;1.90;;;2.00;99.90;;;;;;5000865;28;20180;-79
2022/02/26 00:38:32;;;;;;;11.20;3.00;;;2.10;99.90;;;;;;5016042;28;20652;-79
2022/02/26 00:40:58;;;;;;;8.20;1.77;;;2.20;99.90;;;;;;5001489;28;20203;-80
2022/02/26 00:43:24;;;;;;;11.40;2.20;;;2.30;99.90;;;;;;4999302;28;20194;-78
2022/02/26 00:45:50;;;;;;;11.47;2.20;;;2.30;99.90;;;;;;5001160;28;20188;-77
2022/02/26 00:48:15;;;;;;;12.07;2.70;;;2.50;99.90;;;;;;5002347;28;20201;-75
2022/02/26 00:50:41;;;;;;;10.23;2.10;;;2.60;99.90;;;;;;4997409;28;20208;-78
2022/02/26 00:53:07;;;;;;;6.60;1.63;;;2.60;99.90;;;;;;5016899;28;20176;-78
2022/02/26 00:55:32;;;;;;;13.63;2.70;;;2.70;99.90;;;;;;5015400;28;20214;-79
2022/02/26 00:58:00;;;;;;;10.77;1.90;;;2.70;99.90;;;;;;5015984;28;20670;-77
2022/02/26 01:00:26;;;;;;;9.83;1.80;;;2.80;99.90;;;;;;4999553;28;20210;-78
2022/02/26 01:02:51;;;;;;;9.23;2.20;;;2.80;99.90;;;;;;5015548;28;20291;-78
2022/02/26 01:05:17;;;;;;;11.93;2.43;;;2.80;99.90;;;;;;4997544;28;20619;-79
2022/02/26 01:07:42;;;;;;;12.03;1.93;;;2.80;99.90;;;;;;5016330;28;20184;-77
2022/02/26 01:10:09;;;;;;;8.47;2.00;;;2.90;99.90;;;;;;5000748;28;20232;-78
2022/02/26 01:12:35;;;;;;;13.20;1.97;;;2.90;99.90;;;;;;4998166;28;20670;-76
2022/02/26 01:15:03;;;;;;;11.37;2.70;;;2.80;99.90;;;;;;4995958;28;20192;-77
2022/02/26 01:17:29;;;;;;;6.17;1.90;;;2.90;99.90;;;;;;4997902;28;20195;-75
2022/02/26 01:19:54;;;;;;;14.23;2.50;;;3.00;99.90;;;;;;5014320;28;20207;-78
2022/02/26 01:22:20;;;;;;;11.73;2.10;;;3.00;99.90;;;;;;5015313;28;20192;-77
2022/02/26 01:24:45;;;;;;;9.83;2.67;;;3.00;99.90;;;;;;4999658;28;20194;-77
2022/02/26 01:27:11;;;;;;;12.57;2.37;;;2.90;99.90;;;;;;5014395;28;20188;-78
2022/02/26 01:29:37;;;;;;;10.27;1.80;;;3.00;99.90;;;;;;5005928;28;20211;-78
2022/02/26 01:32:05;;;;;;;9.77;1.83;;;3.00;99.90;;;;;;4999314;28;20203;-78
2022/02/26 01:34:30;;;;;;;15.10;2.37;;;3.00;99.90;;;;;;5004594;28;20184;-76
2022/02/26 01:36:56;;;;;;;9.77;1.97;;;3.00;99.90;;;;;;4996358;28;20778;-78
2022/02/26 01:39:24;;;;;;;7.50;1.53;;;3.00;99.90;;;;;;5013589;28;21082;-78
2022/02/26 01:41:52;;;;;;;12.80;2.47;;;2.90;99.90;;;;;;4998841;28;20214;-76
2022/02/26 01:44:17;;;;;;;9.20;2.03;;;2.90;99.90;;;;;;5000312;28;20183;-77
2022/02/26 01:46:43;;;;;;;9.40;2.40;;;3.00;99.90;;;;;;4998557;28;20265;-79
2022/02/26 01:49:08;;;;;;;11.70;1.80;;;2.90;99.90;;;;;;4999516;28;20184;-76
2022/02/26 01:51:34;;;;;;;12.03;2.10;;;2.90;99.90;;;;;;4997575;28;20871;-78
2022/02/26 01:54:01;;;;;;;8.67;1.97;;;2.90;99.90;;;;;;5013462;28;20199;-79
2022/02/26 01:56:26;;;;;;;9.20;1.50;;;2.90;99.90;;;;;;5005952;28;20179;-80
2022/02/26 01:58:52;;;;;;;8.50;1.97;;;2.90;99.90;;;;;;4997016;28;20654;-77
2022/02/26 02:01:17;;;;;;;7.83;1.50;;;3.00;99.90;;;;;;5014403;28;20238;-77
2022/02/26 02:03:43;;;;;;;6.67;2.03;;;3.00;99.90;;;;;;4997078;28;20211;-78
2022/02/26 02:06:11;;;;;;;10.67;1.90;;;2.90;99.90;;;;;;5000951;28;20191;-80
2022/02/26 02:08:37;;;;;;;9.87;3.13;;;2.90;99.90;;;;;;5012821;28;20191;-78
2022/02/26 02:11:02;;;;;;;12.00;2.07;;;3.00;99.90;;;;;;4996131;28;20692;-79
2022/02/26 02:13:28;;;;;;;6.23;2.00;;;3.00;99.90;;;;;;4998256;28;20275;-77
2022/02/26 02:15:55;;;;;;;8.33;1.77;;;3.00;99.90;;;;;;4999074;28;20649;-76
2022/02/26 02:18:20;;;;;;;6.10;2.10;;;3.00;99.90;;;;;;4998713;28;20206;-80
2022/02/26 02:20:46;;;;;;;11.27;2.27;;;3.10;99.90;;;;;;4998602;28;20687;-76
2022/02/26 02:23:12;;;;;;;10.43;2.13;;;3.10;99.90;;;;;;4997459;28;20179;-78
2022/02/26 02:25:38;;;;;;;11.00;1.60;;;3.00;99.90;;;;;;4998383;28;20705;-79
2022/02/26 02:28:06;;;;;;;12.07;2.67;;;3.00;99.90;;;;;;5005917;28;20184;-77
2022/02/26 02:30:32;;;;;;;9.27;2.40;;;3.00;99.90;;;;;;4997824;28;20222;-78
2022/02/26 02:32:58;;;;;;;8.87;1.83;;;3.10;99.90;;;;;;4996581;28;20172;-77
2022/02/26 02:35:33;;;;;;;11.20;2.47;;;3.10;99.90;;;;;;4997205;28;20226;-78
2022/02/26 02:38:02;;;;;;;6.63;2.00;;;3.10;99.90;;;;;;4996703;28;20253;-76
2022/02/26 02:40:28;;;;;;;12.87;1.93;;;3.10;99.90;;;;;;5013507;28;20258;-80
2022/02/26 02:42:54;;;;;;;9.50;2.13;;;3.20;99.90;;;;;;5012174;28;20184;-82
2022/02/26 02:45:21;;;;;;;10.60;1.77;;;3.10;99.90;;;;;;5004687;28;20270;-79
2022/02/26 02:47:48;;;;;;;8.40;1.70;;;3.10;99.90;;;;;;5013883;28;20199;-77
2022/02/26 02:50:15;;;;;;;10.03;2.13;;;3.10;99.90;;;;;;4997524;28;20274;-80
2022/02/26 02:52:45;;;;;;;12.33;2.23;;;3.20;99.90;;;;;;4997029;28;20184;-77
2022/02/26 02:55:12;;;;;;;8.20;2.30;;;3.20;99.90;;;;;;4997396;28;20179;-80
2022/02/26 02:57:38;;;;;;;11.23;2.23;;;3.20;99.90;;;;;;4999488;28;20184;-76
2022/02/26 03:00:06;;;;;;;8.63;1.80;;;3.20;99.90;;;;;;4998625;28;20211;-79
2022/02/26 03:02:32;;;;;;;12.70;2.13;;;3.30;99.90;;;;;;4997168;28;20207;-80
2022/02/26 03:04:58;;;;;;;10.90;1.67;;;3.30;99.90;;;;;;4998831;28;20184;-79
2022/02/26 03:07:23;;;;;;;7.70;1.50;;;3.20;99.90;;;;;;4996458;28;20242;-80
2022/02/26 03:09:50;;;;;;;8.03;2.17;;;3.30;99.90;;;;;;4996226;28;20514;-80
2022/02/26 03:12:16;;;;;;;7.37;2.10;;;3.30;99.90;;;;;;4998380;28;20295;-78
2022/02/26 03:14:41;;;;;;;10.37;1.70;;;3.30;99.90;;;;;;4994794;28;20307;-80
2022/02/26 03:17:07;;;;;;;9.03;1.80;;;3.30;99.90;;;;;;5012583;28;20222;-79
2022/02/26 03:19:32;;;;;;;11.30;2.37;;;3.30;99.90;;;;;;4997276;28;20191;-80
2022/02/26 03:21:58;;;;;;;8.40;2.00;;;3.30;99.90;;;;;;4994987;28;20651;-79
2022/02/26 03:24:24;;;;;;;6.90;1.80;;;3.30;99.90;;;;;;5012517;28;20194;-82
2022/02/26 03:26:56;;;;;;;12.47;2.77;;;3.30;99.90;;;;;;4997140;28;20331;-78
2022/02/26 03:29:26;;;;;;;7.53;1.60;;;3.30;99.90;;;;;;4998037;28;20241;-78
2022/02/26 03:31:52;;;;;;;10.20;1.70;;;3.40;99.90;;;;;;5013979;28;20208;-78
2022/02/26 03:34:20;;;;;;;10.70;2.33;;;3.40;99.90;;;;;;5013612;28;20177;-79
2022/02/26 03:36:48;;;;;;;9.80;2.17;;;3.40;99.90;;;;;;4997163;28;20184;-81
2022/02/26 03:39:14;;;;;;;9.37;2.43;;;3.40;99.90;;;;;;5013370;28;20650;-78
2022/02/26 03:41:40;;;;;;;11.17;2.07;;;3.40;99.90;;;;;;4997645;28;20564;-79
2022/02/26 03:44:06;;;;;;;7.43;2.63;;;3.40;99.90;;;;;;4993532;28;20184;-82
2022/02/26 03:46:32;;;;;;;7.90;2.27;;;3.50;99.90;;;;;;5013752;28;20721;-77
2022/02/26 03:48:58;;;;;;;6.70;1.80;;;3.40;99.90;;;;;;4998197;28;20188;-76
2022/02/26 03:51:23;;;;;;;10.33;1.70;;;3.50;99.90;;;;;;5011257;28;20694;-77
2022/02/26 03:53:49;;;;;;;8.17;2.23;;;3.40;99.90;;;;;;4995025;28;20198;-80
2022/02/26 03:56:14;;;;;;;7.40;1.50;;;3.40;99.90;;;;;;4993118;28;20186;-80
2022/02/26 03:58:40;;;;;;;7.30;1.63;;;3.50;99.90;;;;;;4995967;28;20630;-76
2022/02/26 04:01:05;;;;;;;11.33;3.10;;;3.40;99.90;;;;;;4988569;28;20200;-79
2022/02/26 04:03:31;;;;;;;8.83;1.87;;;3.40;99.90;;;;;;4991691;28;20207;-78
2022/02/26 04:05:57;;;;;;;10.30;2.37;;;3.50;99.90;;;;;;4985577;28;20655;-77
2022/02/26 04:08:22;;;;;;;8.67;2.20;;;3.50;99.90;;;;;;4990092;28;20184;-76
2022/02/26 04:10:48;;;;;;;7.77;1.90;;;3.50;99.90;;;;;;4988213;28;20239;-77
2022/02/26 04:13:13;;;;;;;7.13;1.57;;;3.60;99.90;;;;;;4997299;28;20643;-78
2022/02/26 04:15:39;;;;;;;10.10;1.83;;;3.50;99.90;;;;;;5012228;28;20190;-77
2022/02/26 04:18:04;;;;;;;9.67;1.80;;;3.50;99.90;;;;;;5012858;28;20561;-76
2022/02/26 04:20:30;;;;;;;10.77;1.70;;;3.50;99.90;;;;;;4996725;28;20200;-77
2022/02/26 04:22:56;;;;;;;14.03;2.00;;;3.60;99.90;;;;;;5012387;28;20187;-77
2022/02/26 04:25:21;;;;;;;10.73;2.13;;;3.60;99.90;;;;;;5013369;28;20278;-78
2022/02/26 04:27:47;;;;;;;17.30;2.27;;;3.50;99.90;;;;;;4997860;28;20191;-78
2022/02/26 04:30:12;;;;;;;10.00;2.43;;;3.60;99.90;;;;;;4997723;28;20195;-80
2022/02/26 04:32:39;;;;;;;9.37;2.10;;;3.50;99.90;;;;;;5004688;28;20186;-77
2022/02/26 04:35:06;;;;;;;7.60;1.93;;;3.50;99.90;;;;;;5018419;28;20184;-78
2022/02/26 04:37:31;;;;;;;10.50;2.33;;;3.50;99.90;;;;;;4999262;28;20186;-80
2022/02/26 04:39:58;;;;;;;8.90;2.03;;;3.50;99.90;;;;;;5017645;28;20199;-78
2022/02/26 04:42:25;;;;;;;11.43;1.73;;;3.50;99.90;;;;;;5002660;28;20181;-78
2022/02/26 04:44:50;;;;;;;11.30;2.23;;;3.50;99.90;;;;;;5004216;28;20198;-78
2022/02/26 04:47:16;;;;;;;10.07;1.87;;;3.50;99.90;;;;;;5001299;28;20260;-78
2022/02/26 04:49:41;;;;;;;9.80;2.27;;;3.60;99.90;;;;;;5000138;28;20294;-78
2022/02/26 04:52:07;;;;;;;10.70;1.77;;;3.50;99.90;;;;;;5002158;28;20216;-78
2022/02/26 04:54:33;;;;;;;8.37;2.67;;;3.50;99.90;;;;;;5001464;28;20215;-79
2022/02/26 04:56:59;;;;;;;11.23;2.37;;;3.50;99.90;;;;;;5002473;28;20188;-78
2022/02/26 04:59:25;;;;;;;10.30;2.23;;;3.50;99.90;;;;;;5001539;28;20322;-78
2022/02/26 05:01:50;;;;;;;9.13;2.10;;;3.40;99.90;;;;;;5018270;28;20528;-77
2022/02/26 05:04:16;;;;;;;11.50;2.43;;;3.50;99.90;;;;;;5002849;28;20215;-77
2022/02/26 05:06:42;;;;;;;5.83;2.33;;;3.50;99.90;;;;;;5002035;28;20250;-78
2022/02/26 05:09:08;;;;;;;10.67;1.97;;;3.50;99.90;;;;;;5014986;28;20674;-78
2022/02/26 05:11:33;;;;;;;13.90;2.37;;;3.40;99.90;;;;;;4996664;28;20207;-79
2022/02/26 05:13:59;;;;;;;10.47;2.37;;;3.50;99.90;;;;;;4999962;28;20590;-78
2022/02/26 05:16:24;;;;;;;10.13;1.83;;;3.40;99.90;;;;;;4999387;28;20188;-75
2022/02/26 05:18:50;;;;;;;8.90;2.43;;;3.40;99.90;;;;;;5014975;28;20183;-78
2022/02/26 05:21:16;;;;;;;13.23;3.20;;;3.40;99.90;;;;;;4998301;28;20579;-78
2022/02/26 05:23:42;;;;;;;11.60;2.23;;;3.50;99.90;;;;;;5006994;28;20188;-77
2022/02/26 05:26:12;;;;;;;13.10;2.43;;;3.50;99.90;;;;;;4998750;28;20180;-77
2022/02/26 05:28:38;;;;;;;11.00;2.70;;;3.40;99.90;;;;;;4999090;28;20663;-77
2022/02/26 05:31:04;;;;;;;6.83;2.10;;;3.40;99.90;;;;;;5000249;28;20219;-75
2022/02/26 05:33:30;;;;;;;11.40;2.90;;;3.40;99.90;;;;;;5000157;28;20181;-80
2022/02/26 05:35:56;;;;;;;10.33;2.20;;;3.50;99.90;;;;;;4999440;28;20180;-78
2022/02/26 05:38:22;;;;;;;16.13;3.50;;;3.40;99.90;;;;;;5014520;28;20172;-79
2022/02/26 05:40:47;;;;;;;8.80;2.23;;;3.40;99.90;;;;;;4998755;28;20290;-76
2022/02/26 05:43:13;;;;;;;10.80;2.83;;;3.50;99.90;;;;;;5001354;28;20195;-76
2022/02/26 05:45:40;;;;;;;9.00;2.43;;;3.50;99.90;;;;;;4999836;28;20191;-79
2022/02/26 05:48:06;;;;;;;8.47;2.23;;;3.50;99.90;;;;;;4998728;28;20250;-77
2022/02/26 05:50:31;;;;;;;14.30;4.13;;;3.40;99.90;;;;;;4996868;28;20204;-77
2022/02/26 05:52:57;;;;;;;10.20;2.97;;;3.40;99.90;;;;;;5012625;28;20241;-77
2022/02/26 05:55:23;;;;;;;16.70;3.10;;;3.40;99.90;;;;;;4998972;28;20184;-80
2022/02/26 05:57:48;;;;;;;11.17;3.37;;;3.40;99.90;;;;;;5013547;28;20184;-78
2022/02/26 06:00:15;;;;;;;11.20;3.20;;;3.40;99.90;;;;;;4995527;28;20196;-78
2022/02/26 06:02:40;;;;;;;11.33;2.90;;;3.40;99.90;;;;;;5011890;28;20241;-78
2022/02/26 06:05:06;;;;;;;11.53;3.40;;;3.50;99.90;;;;;;4993530;28;20180;-78
2022/02/26 06:07:32;;;;;;;7.87;2.67;;;3.50;99.90;;;;;;5012006;28;20190;-79
2022/02/26 06:09:58;;;;;;;11.47;2.93;;;3.50;99.90;;;;;;5015476;28;20199;-76
2022/02/26 06:12:23;;;;;;;12.30;3.67;;;3.50;99.90;;;;;;5015945;28;20748;-80
2022/02/26 06:14:49;;;;;;;8.83;2.73;;;3.40;99.90;;;;;;5015273;28;20271;-76
2022/02/26 06:17:14;;;;;;;15.33;3.30;;;3.40;99.90;;;;;;5001210;28;20291;-78
2022/02/26 06:19:40;;;;;;;11.13;2.77;;;3.50;99.90;;;;;;4998523;28;20214;-76
2022/02/26 06:22:05;;;;;;;8.83;3.27;;;3.50;99.90;;;;;;4999676;28;20187;-79
2022/02/26 06:24:31;;;;;;;8.83;2.83;;;3.40;99.90;;;;;;4999669;28;20218;-78
2022/02/26 06:26:57;;;;;;;10.40;2.70;;;3.50;99.90;;;;;;5015494;28;20535;-78
2022/02/26 06:29:23;;;;;;;10.80;2.53;;;3.40;99.90;;;;;;5016521;28;20192;-81
2022/02/26 06:31:48;;;;;;;11.50;2.87;;;3.40;99.90;;;;;;5000012;28;20214;-78
2022/02/26 06:34:14;;;;;;;11.37;3.40;;;3.30;99.90;;;;;;5011674;28;20187;-77
2022/02/26 06:36:40;;;;;;;11.37;3.67;;;3.30;99.90;;;;;;5012775;28;20274;-80
2022/02/26 06:39:06;;;;;;;10.20;2.93;;;3.40;99.90;;;;;;5004798;28;20191;-78
2022/02/26 06:41:31;;;;;;;8.40;2.90;;;3.50;99.90;;;;;;5006417;28;20202;-79
2022/02/26 06:43:58;;;;;;;13.87;3.17;;;3.50;99.90;;;;;;5008708;28;20615;-79
2022/02/26 06:46:23;;;;;;;11.13;2.50;;;3.50;99.90;;;;;;5001779;28;20302;-78
2022/02/26 06:48:49;;;;;;;14.27;2.93;;;3.50;99.90;;;;;;5003103;28;20219;-79
2022/02/26 06:51:15;;;;;;;10.23;2.27;;;3.50;99.90;;;;;;5002120;28;20645;-79
2022/02/26 06:53:40;;;;;;;12.87;3.03;;;3.50;99.90;;;;;;5002872;28;20949;-79
2022/02/26 06:56:06;;;;;;;10.17;2.67;;;3.60;99.90;;;;;;5002036;28;20198;-79
2022/02/26 06:58:32;;;;;;;9.33;2.23;;;3.60;99.90;;;;;;4996624;28;20192;-78
2022/02/26 07:00:59;;;;;;;14.80;3.10;;;3.60;99.90;;;;;;5000665;28;20222;-79
2022/02/26 07:03:25;;;;;;;12.10;2.57;;;3.60;99.90;;;;;;5002001;28;20262;-78
2022/02/26 07:05:50;;;;;;;9.13;2.40;;;3.60;99.90;;;;;;5015861;28;20196;-79
2022/02/26 07:08:16;;;;;;;11.07;2.40;;;3.70;99.90;;;;;;4999552;28;20578;-77
2022/02/26 07:10:41;;;;;;;11.93;3.17;;;3.70;99.90;;;;;;5001026;28;20224;-79
2022/02/26 07:13:07;;;;;;;11.77;2.90;;;3.80;99.90;;;;;;4997719;28;20211;-77
2022/02/26 07:15:34;;;;;;;9.40;2.30;;;3.70;99.90;;;;;;5001621;28;20191;-77
2022/02/26 07:17:59;;;;;;;8.37;2.37;;;3.80;99.90;;;;;;5000853;28;20183;-79
2022/02/26 07:20:25;;;;;;;6.93;2.30;;;3.80;99.90;;;;;;4998800;28;20200;-79
2022/02/26 07:22:51;;;;;;;9.10;2.70;;;3.80;99.90;;;;;;5001829;28;21007;-78
2022/02/26 07:25:16;;;;;;;12.77;2.60;;;3.90;99.90;;;;;;5000626;28;20188;-80
2022/02/26 07:27:42;;;;;;;14.77;3.67;;;3.90;99.90;;;;;;4999691;28;20302;-79
2022/02/26 07:30:08;;;;;;;12.20;3.00;;;4.00;99.90;;;;;;4998439;28;20200;-78
2022/02/26 07:32:34;;;;;;;12.37;3.20;;;4.00;99.90;;;;;;4996873;28;20203;-78
2022/02/26 07:35:00;;;;;;;10.60;3.03;;;3.90;99.90;;;;;;4999831;28;20712;-78
2022/02/26 07:37:26;;;;;;;12.93;3.03;;;4.00;99.90;;;;;;5003194;28;20233;-79
2022/02/26 07:39:54;;;;;;;11.87;2.93;;;4.00;99.90;;;;;;5000191;28;20208;-79
2022/02/26 07:42:19;;;;;;;11.53;2.90;;;4.10;99.90;;;;;;4998408;28;20207;-79
2022/02/26 07:44:45;;;;;;;11.67;2.90;;;4.20;99.90;;;;;;4998460;28;20698;-79
2022/02/26 07:47:11;;;;;;;10.73;2.67;;;4.20;99.90;;;;;;5000054;28;20184;-78
2022/02/26 07:49:36;;;;;;;11.13;2.70;;;4.20;99.90;;;;;;5000145;28;20207;-80
2022/02/26 07:52:02;;;;;;;14.70;2.60;;;4.20;99.90;;;;;;4998705;28;20237;-78
2022/02/26 07:54:28;;;;;;;11.53;2.87;;;4.20;99.90;;;;;;4996520;28;20190;-79
2022/02/26 07:56:53;;;;;;;13.80;4.47;;;4.30;99.90;;;;;;4999177;28;20181;-79
2022/02/26 07:59:19;;;;;;;9.87;3.43;;;4.30;99.90;;;;;;4996315;28;20194;-79
2022/02/26 08:01:45;;;;;;;9.97;2.70;;;4.40;99.90;;;;;;5012657;28;20191;-79
2022/02/26 08:04:11;;;;;;;13.37;3.53;;;4.60;99.90;;;;;;5011035;28;20180;-79
2022/02/26 08:06:37;;;;;;;12.93;3.03;;;4.60;99.90;;;;;;4998279;28;20237;-79
2022/02/26 08:09:03;;;;;;;12.77;3.40;;;4.70;99.90;;;;;;5000529;28;20270;-79
2022/02/26 08:11:30;;;;;;;10.67;3.40;;;4.70;99.90;;;;;;5015476;28;20235;-79
2022/02/26 08:13:59;;;;;;;11.00;2.60;;;4.70;99.90;;;;;;5002703;28;20228;-80
2022/02/26 08:16:25;;;;;;;9.23;2.93;;;4.80;99.90;;;;;;5017804;28;20206;-78
2022/02/26 08:18:52;;;;;;;9.93;2.80;;;4.80;99.90;;;;;;5001074;28;20194;-80
2022/02/26 08:21:21;;;;;;;11.80;2.67;;;4.90;99.90;;;;;;5003330;28;20709;-80
2022/02/26 08:23:48;;;;;;;9.03;2.30;;;4.90;99.90;;;;;;5000629;28;20726;-77
2022/02/26 08:26:15;;;;;;;11.87;2.73;;;4.90;99.90;;;;;;5001664;28;20184;-80
2022/02/26 08:28:41;;;;;;;9.20;3.00;;;4.90;99.90;;;;;;5001520;28;20258;-80
2022/02/26 08:31:07;;;;;;;13.07;3.10;;;4.90;99.90;;;;;;5002092;28;20215;-79
2022/02/26 08:33:33;;;;;;;9.83;2.70;;;4.90;99.90;;;;;;5001575;28;20286;-80
2022/02/26 08:35:58;;;;;;;12.30;2.80;;;5.10;99.90;;;;;;5001020;28;20635;-79
2022/02/26 08:38:24;;;;;;;18.17;3.43;;;5.00;99.90;;;;;;5001209;28;20192;-81
2022/02/26 08:40:50;;;;;;;9.00;2.40;;;5.00;99.90;;;;;;5001815;28;20235;-78
2022/02/26 08:43:15;;;;;;;9.73;2.37;;;5.00;99.90;;;;;;5003344;28;20188;-80
2022/02/26 08:45:43;;;;;;;10.23;4.27;;;5.20;99.90;;;;;;5001984;28;20200;-80
2022/02/26 08:48:08;;;;;;;15.40;3.27;;;5.20;99.90;;;;;;5017989;28;20207;-79
2022/02/26 08:50:34;;;;;;;10.63;3.20;;;5.10;99.90;;;;;;5001409;28;20281;-80
2022/02/26 08:53:00;;;;;;;8.93;2.67;;;5.20;99.90;;;;;;4997340;28;20208;-78
2022/02/26 08:55:25;;;;;;;7.27;2.50;;;5.40;99.90;;;;;;4997823;28;20263;-80
2022/02/26 08:57:51;;;;;;;13.10;2.53;;;5.30;99.90;;;;;;4995456;28;21198;-82
2022/02/26 09:00:17;;;;;;;9.23;2.50;;;5.30;99.90;;;;;;4997186;28;20580;-82
2022/02/26 09:02:43;;;;;;;8.07;2.37;;;5.40;99.90;;;;;;5000028;28;20208;-82
2022/02/26 09:05:09;;;;;;;8.27;2.67;;;5.40;99.90;;;;;;4995912;28;20188;-78
2022/02/26 09:07:37;;;;;;;8.83;2.63;;;5.40;99.90;;;;;;5003690;28;20206;-81
2022/02/26 09:10:04;;;;;;;9.87;2.80;;;5.60;99.90;;;;;;5002757;28;20276;-79
2022/02/26 09:12:29;;;;;;;12.20;2.67;;;5.60;99.90;;;;;;5002926;28;20343;-78
2022/02/26 09:14:55;;;;;;;10.70;4.20;;;5.70;99.90;;;;;;4999978;28;20272;-77
2022/02/26 09:17:21;;;;;;;11.97;2.60;;;5.70;99.90;;;;;;4988039;28;20508;-77
2022/02/26 09:19:46;;;;;;;11.10;2.73;;;5.60;99.90;;;;;;4989974;28;20238;-79
2022/02/26 09:22:12;;;;;;;16.87;3.10;;;5.80;99.90;;;;;;4990550;28;20180;-79
2022/02/26 09:24:38;;;;;;;7.40;1.97;;;6.00;99.90;;;;;;4989572;28;20535;-79
2022/02/26 09:27:04;;;;;;;5.20;2.00;;;6.10;99.90;;;;;;4993425;28;20195;-77
2022/02/26 09:29:29;;;;;;;10.23;2.40;;;6.40;99.90;;;;;;4995473;28;20279;-79
2022/02/26 09:31:55;;;;;;;8.83;2.97;;;6.40;99.90;;;;;;4998137;28;20289;-78
2022/02/26 09:34:22;;;;;;;10.33;2.37;;;6.60;99.90;;;;;;4990594;28;20181;-79
2022/02/26 09:36:50;;;;;;;10.63;2.63;;;6.50;99.90;;;;;;4995468;28;20190;-79
2022/02/26 09:39:17;;;;;;;12.77;3.57;;;6.30;99.90;;;;;;4989964;28;20187;-79
2022/02/26 09:41:46;;;;;;;12.67;2.77;;;6.20;99.90;;;;;;5019404;28;20187;-76
2022/02/26 09:44:12;;;;;;;9.53;2.50;;;6.20;99.90;;;;;;5001179;28;20180;-77
2022/02/26 09:46:38;;;;;;;8.57;2.50;;;6.20;99.90;;;;;;4996746;28;20234;-77
2022/02/26 09:49:05;;;;;;;12.57;3.13;;;6.40;99.90;;;;;;4993385;28;20188;-76
2022/02/26 09:51:32;;;;;;;15.83;2.97;;;6.70;99.90;;;;;;5004625;28;20222;-79
2022/02/26 09:53:58;;;;;;;10.57;2.33;;;6.60;99.90;;;;;;4995010;28;20207;-80
2022/02/26 09:56:24;;;;;;;10.37;2.77;;;6.50;99.90;;;;;;5015861;28;20194;-77
2022/02/26 09:58:50;;;;;;;9.87;2.43;;;6.60;99.90;;;;;;4992521;28;20591;-77
2022/02/26 10:01:16;;;;;;;15.47;3.00;;;6.40;99.90;;;;;;4989251;28;20474;-78
2022/02/26 10:03:42;;;;;;;6.60;2.27;;;6.20;99.90;;;;;;4991749;28;20211;-77
2022/02/26 10:06:16;;;;;;;11.93;2.73;;;6.10;99.90;;;;;;4993050;28;20187;-77
2022/02/26 10:08:45;;;;;;;13.23;2.57;;;6.30;99.90;;;;;;4988042;28;20183;-80
2022/02/26 10:11:27;;;;;;;8.63;2.57;;;6.70;99.90;;;;;;4991225;28;20212;-79
2022/02/26 10:13:58;;;;;;;9.27;2.03;;;7.20;99.90;;;;;;5004927;28;20226;-77
2022/02/26 10:16:59;;;;;;;15.33;2.90;;;7.50;99.90;;;;;;4995228;28;20180;-77
2022/02/26 10:19:27;;;;;;;8.40;2.10;;;7.60;99.90;;;;;;4967305;28;20192;-79
2022/02/26 10:21:57;;;;;;;6.90;1.67;;;7.40;99.90;;;;;;4998861;28;20298;-80
2022/02/26 10:24:23;;;;;;;7.97;2.40;;;7.20;99.90;;;;;;5016005;28;20184;-81
2022/02/26 10:27:03;;;;;;;7.13;2.03;;;7.00;99.90;;;;;;4999817;28;20211;-79
2022/02/26 10:29:30;;;;;;;6.33;2.23;;;6.80;99.90;;;;;;5012530;28;20206;-78
2022/02/26 10:31:58;;;;;;;8.13;2.53;;;6.60;99.90;;;;;;5006771;28;20257;-80
2022/02/26 10:34:36;;;;;;;8.03;2.43;;;6.70;99.90;;;;;;4999088;28;20180;-80
2022/02/26 10:37:12;;;;;;;7.37;2.10;;;6.70;99.90;;;;;;4996617;28;20222;-81
2022/02/26 10:39:51;;;;;;;9.00;2.20;;;7.00;99.90;;;;;;4999194;28;20830;-79
2022/02/26 10:42:25;;;;;;;8.60;2.33;;;7.10;99.90;;;;;;4997285;28;20184;-79
2022/02/26 10:45:15;;;;;;;9.00;2.27;;;7.20;99.90;;;;;;4996870;28;20180;-81
2022/02/26 10:47:44;;;;;;;4.80;2.10;;;7.20;99.90;;;;;;4997802;28;20187;-81
2022/02/26 10:50:21;;;;;;;9.30;2.53;;;7.40;99.90;;;;;;4995502;28;20620;-81
2022/02/26 10:52:59;;;;;;;12.83;2.60;;;7.40;99.90;;;;;;4999673;28;20233;-81
2022/02/26 10:55:50;;;;;;;7.50;1.97;;;7.80;99.90;;;;;;4999173;28;20643;-80
2022/02/26 10:58:21;;;;;;;9.27;2.40;;;7.60;99.90;;;;;;4999698;28;20175;-81
2022/02/26 11:00:48;;;;;;;10.73;2.80;;;7.70;99.90;;;;;;5006059;28;20222;-83
2022/02/26 11:03:16;;;;;;;6.53;2.27;;;8.10;99.90;;;;;;5000409;28;20670;-80
2022/02/26 11:05:42;;;;;;;9.57;2.77;;;8.30;99.90;;;;;;5006266;28;20191;-80
2022/02/26 11:08:11;;;;;;;7.13;1.80;;;8.30;99.90;;;;;;5000136;28;20216;-81
2022/02/26 11:10:38;;;;;;;7.43;1.70;;;8.40;99.90;;;;;;4997095;28;21116;-81
2022/02/26 11:13:03;;;;;;;7.50;1.83;;;8.40;99.90;;;;;;4997957;28;20199;-81
2022/02/26 11:15:29;;;;;;;5.10;2.23;;;8.30;99.90;;;;;;4999860;28;20210;-81
2022/02/26 11:17:57;;;;;;;6.07;1.87;;;8.30;99.90;;;;;;4998575;28;20750;-81
2022/02/26 11:20:26;;;;;;;8.30;2.17;;;8.20;99.90;;;;;;4997417;28;20291;-81
2022/02/26 11:22:55;;;;;;;11.23;2.60;;;8.20;99.90;;;;;;4994957;28;20605;-79
2022/02/26 11:25:22;;;;;;;8.93;1.93;;;7.90;99.90;;;;;;4996947;28;20187;-79
2022/02/26 11:27:48;;;;;;;9.73;2.20;;;7.70;99.90;;;;;;4997019;28;20187;-81
2022/02/26 11:30:17;;;;;;;9.83;2.03;;;7.60;99.90;;;;;;5010554;28;20225;-80
2022/02/26 11:32:46;;;;;;;6.97;2.53;;;7.70;99.90;;;;;;4997252;28;20672;-79
2022/02/26 11:35:20;;;;;;;9.70;2.40;;;7.70;99.90;;;;;;5006545;28;20227;-80
2022/02/26 11:37:51;;;;;;;8.50;2.17;;;7.70;99.90;;;;;;5016500;28;20215;-77
2022/02/26 11:40:18;;;;;;;6.00;1.53;;;7.80;99.90;;;;;;4996945;28;20196;-78
2022/02/26 11:42:44;;;;;;;8.87;1.73;;;7.90;99.90;;;;;;4999318;28;20242;-79
2022/02/26 11:45:37;;;;;;;5.57;1.87;;;8.10;99.90;;;;;;4995041;28;20192;-79
2022/02/26 11:48:08;;;;;;;7.17;2.30;;;8.10;99.90;;;;;;4990937;28;20274;-80
2022/02/26 11:50:37;;;;;;;8.83;2.30;;;8.10;99.90;;;;;;4992286;28;20214;-79
2022/02/26 11:53:20;;;;;;;9.33;2.37;;;8.20;99.90;;;;;;4991263;28;20263;-80
2022/02/26 11:56:03;;;;;;;6.60;2.30;;;8.30;99.90;;;;;;4989053;28;20688;-79
2022/02/26 11:58:33;;;;;;;6.07;1.80;;;8.10;99.90;;;;;;4984773;28;20173;-79
2022/02/26 12:00:58;;;;;;;8.47;1.87;;;8.20;99.90;;;;;;4986840;28;20203;-79
2022/02/26 12:03:41;;;;;;;10.73;2.47;;;8.30;99.90;;;;;;4991099;28;20202;-80
2022/02/26 12:06:09;;;;;;;8.00;2.43;;;8.40;99.90;;;;;;4986408;28;20199;-78
2022/02/26 12:08:46;;;;;;;6.77;2.33;;;8.30;99.90;;;;;;4999329;28;20269;-78
2022/02/26 12:11:21;;;;;;;6.13;1.80;;;8.40;99.90;;;;;;4986523;28;20290;-80
2022/02/26 12:14:00;;;;;;;11.47;2.67;;;8.60;99.90;;;;;;4989343;28;20178;-79
2022/02/26 12:16:31;;;;;;;6.83;1.70;;;8.50;99.90;;;;;;4987727;28;20176;-80
2022/02/26 12:18:56;;;;;;;5.27;2.57;;;8.50;99.90;;;;;;4987679;28;20874;-79
2022/02/26 12:21:24;;;;;;;10.33;2.20;;;8.50;99.90;;;;;;4987016;28;20207;-80
2022/02/26 12:24:26;;;;;;;6.43;2.07;;;8.50;99.90;;;;;;4987803;28;20241;-77
2022/02/26 12:27:07;;;;;;;6.83;2.30;;;8.60;99.90;;;;;;4986307;28;20210;-80
2022/02/26 12:29:38;;;;;;;8.67;2.40;;;8.30;99.90;;;;;;4991755;28;20360;-79
2022/02/26 12:32:19;;;;;;;7.43;2.40;;;8.20;99.90;;;;;;5001251;28;20881;-76
2022/02/26 12:35:08;;;;;;;11.27;2.57;;;8.30;99.90;;;;;;4999716;28;20180;-76
2022/02/26 12:37:34;;;;;;;8.83;1.93;;;8.40;99.90;;;;;;4991577;28;20463;-81
2022/02/26 12:40:03;;;;;;;10.13;2.23;;;8.50;99.90;;;;;;4984291;28;20200;-76
2022/02/26 12:42:33;;;;;;;11.07;3.10;;;8.60;99.90;;;;;;4995369;28;20193;-77
2022/02/26 12:45:04;;;;;;;8.87;2.90;;;8.70;99.90;;;;;;4999066;28;20192;-78
2022/02/26 12:47:30;;;;;;;9.77;2.67;;;8.90;99.90;;;;;;5003455;28;20184;-78
2022/02/26 12:49:57;;;;;;;9.93;3.37;;;8.90;99.90;;;;;;4991845;28;20303;-79
2022/02/26 12:52:25;;;;;;;8.30;2.80;;;8.90;99.90;;;;;;4990273;28;20216;-79
2022/02/26 12:54:50;;;;;;;11.27;5.00;;;8.90;99.90;;;;;;5004525;28;20210;-76